createdAt,value
2023-01-02T00:00:48.712Z,1003.66
2023-01-02T00:01:48.709Z,1003.64
2023-01-02T00:02:48.781Z,1003.65
2023-01-02T00:03:48.733Z,1003.69
2023-01-02T00:04:48.664Z,1003.66
2023-01-02T00:05:48.641Z,1003.70
2023-01-02T00:06:48.637Z,1003.64
2023-01-02T00:07:48.650Z,1003.74
2023-01-02T00:08:48.647Z,1003.68
2023-01-02T00:09:48.594Z,1003.66
2023-01-02T00:10:52.731Z,1003.69
2023-01-02T00:11:48.575Z,1003.65
2023-01-02T00:12:48.634Z,1003.67
2023-01-02T00:13:48.568Z,1003.70
2023-01-02T00:14:48.540Z,1003.69
2023-01-02T00:15:48.583Z,1003.65
2023-01-02T00:16:48.531Z,1003.64
2023-01-02T00:17:48.519Z,1003.64
2023-01-02T00:18:48.520Z,1003.61
2023-01-02T00:19:48.513Z,1003.66
2023-01-02T00:20:49.473Z,1003.63
2023-01-02T00:21:49.507Z,1003.64
2023-01-02T00:22:48.488Z,1003.55
2023-01-02T00:23:48.454Z,1003.52
2023-01-02T00:24:48.488Z,1003.48
2023-01-02T00:25:48.444Z,1003.54
2023-01-02T00:26:48.447Z,1003.51
2023-01-02T00:27:48.431Z,1003.52
2023-01-02T00:28:48.455Z,1003.47
2023-01-02T00:29:48.393Z,1003.45
2023-01-02T00:30:48.406Z,1003.49
2023-01-02T00:31:49.456Z,1003.44
2023-01-02T00:32:49.388Z,1003.42
2023-01-02T00:33:48.347Z,1003.43
2023-01-02T00:34:48.318Z,1003.39
2023-01-02T00:35:48.360Z,1003.44
2023-01-02T00:36:48.295Z,1003.46
2023-01-02T00:37:48.315Z,1003.42
2023-01-02T00:38:48.275Z,1003.42
2023-01-02T00:39:48.291Z,1003.41
2023-01-02T00:40:48.301Z,1003.38
2023-01-02T00:41:48.244Z,1003.49
2023-01-02T00:42:48.248Z,1003.44
2023-01-02T00:43:48.246Z,1003.42
2023-01-02T00:44:48.232Z,1003.35
2023-01-02T00:45:48.239Z,1003.46
2023-01-02T00:46:48.284Z,1003.40
2023-01-02T00:47:49.189Z,1003.41
2023-01-02T00:48:48.164Z,1003.47
2023-01-02T00:49:48.142Z,1003.35
2023-01-02T00:50:48.150Z,1003.33
2023-01-02T00:51:49.145Z,1003.35
2023-01-02T00:52:48.114Z,1003.38
2023-01-02T00:53:49.159Z,1003.35
2023-01-02T00:54:48.124Z,1003.34
2023-01-02T00:55:48.126Z,1003.33
2023-01-02T00:56:48.109Z,1003.36
2023-01-02T00:57:48.135Z,1003.39
2023-01-02T00:58:48.056Z,1003.26
2023-01-02T00:59:48.107Z,1003.32
2023-01-02T01:00:49.109Z,1003.29
2023-01-02T01:01:48.208Z,1003.27
2023-01-02T01:02:48.253Z,1003.31
2023-01-02T01:03:49.005Z,1003.24
2023-01-02T01:04:47.996Z,1003.25
2023-01-02T01:05:48.044Z,1003.24
2023-01-02T01:06:47.981Z,1003.19
2023-01-02T01:07:47.961Z,1003.21
2023-01-02T01:08:47.969Z,1003.27
2023-01-02T01:09:47.941Z,1003.22
2023-01-02T01:10:47.943Z,1003.24
2023-01-02T01:11:47.942Z,1003.18
2023-01-02T01:12:47.925Z,1003.17
2023-01-02T01:13:47.895Z,1003.21
2023-01-02T01:14:47.883Z,1003.21
2023-01-02T01:15:48.853Z,1003.28
2023-01-02T01:16:48.895Z,1003.22
2023-01-02T01:17:47.923Z,1003.24
2023-01-02T01:18:47.852Z,1003.27
2023-01-02T01:19:47.826Z,1003.21
2023-01-02T01:20:47.830Z,1003.23
2023-01-02T01:21:47.801Z,1003.25
2023-01-02T01:22:47.792Z,1003.19
2023-01-02T01:23:48.822Z,1003.18
2023-01-02T01:24:47.773Z,1003.11
2023-01-02T01:25:47.761Z,1003.16
2023-01-02T01:26:47.779Z,1003.20
2023-01-02T01:27:47.742Z,1003.12
2023-01-02T01:28:47.771Z,1003.15
2023-01-02T01:29:47.751Z,1003.10
2023-01-02T01:30:48.688Z,1003.11
2023-01-02T01:31:47.848Z,1003.06
2023-01-02T01:32:47.740Z,1003.03
2023-01-02T01:33:47.716Z,1003.07
2023-01-02T01:34:47.683Z,1003.07
2023-01-02T01:35:47.701Z,1003.07
2023-01-02T01:36:47.679Z,1003.07
2023-01-02T01:37:47.643Z,1003.13
2023-01-02T01:38:47.616Z,1003.10
2023-01-02T01:39:47.620Z,1003.14
2023-01-02T01:40:47.599Z,1003.10
2023-01-02T01:41:47.627Z,1003.12
2023-01-02T01:42:50.388Z,1003.12
2023-01-02T01:43:47.587Z,1003.13
2023-01-02T01:44:47.547Z,1003.06
2023-01-02T01:45:47.611Z,1003.14
2023-01-02T01:46:47.579Z,1003.02
2023-01-02T01:47:48.521Z,1003.13
2023-01-02T01:48:47.531Z,1003.10
2023-01-02T01:49:47.504Z,1003.05
2023-01-02T01:50:48.476Z,1002.90
2023-01-02T01:51:47.497Z,1002.97
2023-01-02T01:52:48.463Z,1002.98
2023-01-02T01:53:47.454Z,1002.97
2023-01-02T01:54:48.437Z,1002.91
2023-01-02T01:55:47.450Z,1002.94
2023-01-02T01:56:47.460Z,1003.02
2023-01-02T01:57:47.414Z,1003.01
2023-01-02T01:58:47.444Z,1002.99
2023-01-02T01:59:47.398Z,1002.92
2023-01-02T02:00:47.455Z,1002.94
2023-01-02T02:01:47.601Z,1002.95
2023-01-02T02:02:47.579Z,1002.91
2023-01-02T02:03:47.340Z,1002.88
2023-01-02T02:04:47.477Z,1002.90
2023-01-02T02:05:47.333Z,1002.93
2023-01-02T02:06:47.330Z,1002.86
2023-01-02T02:07:48.312Z,1002.86
2023-01-02T02:08:47.286Z,1002.86
2023-01-02T02:09:47.297Z,1002.82
2023-01-02T02:10:47.273Z,1002.83
2023-01-02T02:11:47.295Z,1002.86
2023-01-02T02:12:47.270Z,1002.80
2023-01-02T02:13:47.263Z,1002.83
2023-01-02T02:14:47.248Z,1002.80
2023-01-02T02:15:47.638Z,1002.80
2023-01-02T02:16:48.225Z,1002.73
2023-01-02T02:17:47.196Z,1002.79
2023-01-02T02:18:47.202Z,1002.77
2023-01-02T02:19:47.206Z,1002.79
2023-01-02T02:20:47.181Z,1002.77
2023-01-02T02:21:47.163Z,1002.69
2023-01-02T02:22:47.152Z,1002.70
2023-01-02T02:23:47.159Z,1002.67
2023-01-02T02:24:47.144Z,1002.59
2023-01-02T02:25:47.124Z,1002.58
2023-01-02T02:26:47.102Z,1002.66
2023-01-02T02:27:47.101Z,1002.64
2023-01-02T02:28:47.062Z,1002.60
2023-01-02T02:29:47.084Z,1002.56
2023-01-02T02:30:47.054Z,1002.57
2023-01-02T02:31:47.131Z,1002.52
2023-01-02T02:32:47.083Z,1002.64
2023-01-02T02:33:47.095Z,1002.60
2023-01-02T02:34:46.998Z,1002.62
2023-01-02T02:35:48.010Z,1002.65
2023-01-02T02:36:48.025Z,1002.62
2023-01-02T02:37:47.014Z,1002.60
2023-01-02T02:38:46.969Z,1002.60
2023-01-02T02:39:46.975Z,1002.65
2023-01-02T02:40:46.999Z,1002.60
2023-01-02T02:41:46.941Z,1002.65
2023-01-02T02:42:47.971Z,1002.60
2023-01-02T02:43:47.971Z,1002.55
2023-01-02T02:44:46.891Z,1002.60
2023-01-02T02:45:46.927Z,1002.53
2023-01-02T02:46:46.892Z,1002.55
2023-01-02T02:47:46.870Z,1002.60
2023-01-02T02:48:47.049Z,1002.52
2023-01-02T02:49:46.898Z,1002.54
2023-01-02T02:50:47.841Z,1002.58
2023-01-02T02:51:47.839Z,1002.55
2023-01-02T02:52:46.819Z,1002.62
2023-01-02T02:53:46.818Z,1002.58
2023-01-02T02:54:46.823Z,1002.53
2023-01-02T02:55:46.786Z,1002.47
2023-01-02T02:56:46.765Z,1002.46
2023-01-02T02:57:46.779Z,1002.45
2023-01-02T02:58:46.767Z,1002.44
2023-01-02T02:59:47.743Z,1002.44
2023-01-02T03:00:46.831Z,1002.46
2023-01-02T03:01:46.924Z,1002.46
2023-01-02T03:02:47.907Z,1002.51
2023-01-02T03:03:46.732Z,1002.53
2023-01-02T03:04:46.731Z,1002.49
2023-01-02T03:05:46.676Z,1002.48
2023-01-02T03:06:46.710Z,1002.47
2023-01-02T03:07:46.672Z,1002.47
2023-01-02T03:08:46.663Z,1002.49
2023-01-02T03:09:46.632Z,1002.50
2023-01-02T03:10:47.647Z,1002.53
2023-01-02T03:11:46.651Z,1002.53
2023-01-02T03:12:46.587Z,1002.52
2023-01-02T03:13:46.642Z,1002.48
2023-01-02T03:14:46.601Z,1002.52
2023-01-02T03:15:46.575Z,1002.53
2023-01-02T03:16:46.587Z,1002.45
2023-01-02T03:17:47.550Z,1002.49
2023-01-02T03:18:46.547Z,1002.48
2023-01-02T03:19:46.542Z,1002.46
2023-01-02T03:20:46.506Z,1002.51
2023-01-02T03:21:46.525Z,1002.48
2023-01-02T03:22:46.489Z,1002.41
2023-01-02T03:23:47.473Z,1002.45
2023-01-02T03:24:47.511Z,1002.34
2023-01-02T03:25:46.453Z,1002.33
2023-01-02T03:26:46.462Z,1002.33
2023-01-02T03:27:46.472Z,1002.31
2023-01-02T03:28:46.444Z,1002.35
2023-01-02T03:29:46.439Z,1002.31
2023-01-02T03:30:46.448Z,1002.30
2023-01-02T03:31:46.412Z,1002.27
2023-01-02T03:32:46.402Z,1002.27
2023-01-02T03:33:46.396Z,1002.28
2023-01-02T03:34:46.377Z,1002.26
2023-01-02T03:35:46.345Z,1002.28
2023-01-02T03:36:46.377Z,1002.28
2023-01-02T03:37:47.320Z,1002.27
2023-01-02T03:38:46.381Z,1002.21
2023-01-02T03:39:46.333Z,1002.28
2023-01-02T03:40:46.323Z,1002.25
2023-01-02T03:41:46.281Z,1002.22
2023-01-02T03:42:46.279Z,1002.25
2023-01-02T03:43:48.993Z,1002.26
2023-01-02T03:44:47.247Z,1002.29
2023-01-02T03:45:46.311Z,1002.28
2023-01-02T03:46:46.243Z,1002.25
2023-01-02T03:47:46.210Z,1002.28
2023-01-02T03:48:46.193Z,1002.27
2023-01-02T03:49:47.200Z,1002.28
2023-01-02T03:50:46.196Z,1002.22
2023-01-02T03:51:46.226Z,1002.21
2023-01-02T03:52:46.177Z,1002.24
2023-01-02T03:53:46.176Z,1002.23
2023-01-02T03:54:47.163Z,1002.23
2023-01-02T03:55:46.145Z,1002.19
2023-01-02T03:56:46.200Z,1002.24
2023-01-02T03:57:48.041Z,1002.23
2023-01-02T03:58:46.139Z,1002.22
2023-01-02T03:59:46.085Z,1002.29
2023-01-02T04:00:46.078Z,1002.19
2023-01-02T04:01:46.169Z,1002.21
2023-01-02T04:02:46.172Z,1002.24
2023-01-02T04:03:46.056Z,1002.23
2023-01-02T04:04:50.667Z,1002.18
2023-01-02T04:05:47.014Z,1002.22
2023-01-02T04:06:46.013Z,1002.26
2023-01-02T04:07:46.018Z,1002.25
2023-01-02T04:08:46.019Z,1002.24
2023-01-02T04:09:45.991Z,1002.22
2023-01-02T04:10:45.992Z,1002.23
2023-01-02T04:11:45.989Z,1002.22
2023-01-02T04:12:45.969Z,1002.30
2023-01-02T04:13:45.996Z,1002.26
2023-01-02T04:14:45.949Z,1002.25
2023-01-02T04:15:45.973Z,1002.26
2023-01-02T04:16:45.910Z,1002.24
2023-01-02T04:17:46.924Z,1002.30
2023-01-02T04:18:47.129Z,1002.35
2023-01-02T04:19:45.884Z,1002.30
2023-01-02T04:20:45.881Z,1002.31
2023-01-02T04:21:45.840Z,1002.31
2023-01-02T04:22:45.873Z,1002.32
2023-01-02T04:23:45.811Z,1002.25
2023-01-02T04:24:45.816Z,1002.31
2023-01-02T04:25:45.828Z,1002.22
2023-01-02T04:26:46.871Z,1002.24
2023-01-02T04:27:46.805Z,1002.27
2023-01-02T04:28:46.815Z,1002.27
2023-01-02T04:29:46.755Z,1002.26
2023-01-02T04:30:45.795Z,1002.32
2023-01-02T04:31:45.772Z,1002.35
2023-01-02T04:32:45.734Z,1002.31
2023-01-02T04:33:45.738Z,1002.32
2023-01-02T04:34:46.760Z,1002.34
2023-01-02T04:35:45.696Z,1002.34
2023-01-02T04:36:45.847Z,1002.30
2023-01-02T04:37:45.695Z,1002.22
2023-01-02T04:38:45.661Z,1002.21
2023-01-02T04:39:45.654Z,1002.26
2023-01-02T04:40:46.648Z,1002.21
2023-01-02T04:41:46.690Z,1002.27
2023-01-02T04:42:45.613Z,1002.24
2023-01-02T04:43:45.625Z,1002.23
2023-01-02T04:44:53.627Z,1002.27
2023-01-02T04:45:45.598Z,1002.20
2023-01-02T04:46:45.600Z,1002.25
2023-01-02T04:47:45.565Z,1002.27
2023-01-02T04:48:45.595Z,1002.24
2023-01-02T04:49:45.541Z,1002.20
2023-01-02T04:50:45.551Z,1002.23
2023-01-02T04:51:45.539Z,1002.20
2023-01-02T04:52:45.509Z,1002.17
2023-01-02T04:53:45.500Z,1002.21
2023-01-02T04:54:45.523Z,1002.18
2023-01-02T04:55:46.498Z,1002.20
2023-01-02T04:56:45.463Z,1002.20
2023-01-02T04:57:45.462Z,1002.17
2023-01-02T04:58:45.445Z,1002.16
2023-01-02T04:59:45.488Z,1002.14
2023-01-02T05:00:45.471Z,1002.12
2023-01-02T05:01:45.538Z,1002.13
2023-01-02T05:02:46.555Z,1002.15
2023-01-02T05:03:45.477Z,1002.18
2023-01-02T05:04:45.380Z,1002.18
2023-01-02T05:05:46.385Z,1002.17
2023-01-02T05:06:45.367Z,1002.16
2023-01-02T05:07:46.352Z,1002.12
2023-01-02T05:08:45.342Z,1002.15
2023-01-02T05:09:45.355Z,1002.13
2023-01-02T05:10:45.301Z,1002.23
2023-01-02T05:11:45.308Z,1002.14
2023-01-02T05:12:46.313Z,1002.21
2023-01-02T05:13:45.323Z,1002.19
2023-01-02T05:14:46.285Z,1002.17
2023-01-02T05:15:45.308Z,1002.22
2023-01-02T05:16:45.357Z,1002.27
2023-01-02T05:17:45.231Z,1002.23
2023-01-02T05:18:45.276Z,1002.28
2023-01-02T05:19:45.225Z,1002.23
2023-01-02T05:20:45.218Z,1002.24
2023-01-02T05:21:45.184Z,1002.25
2023-01-02T05:22:45.197Z,1002.29
2023-01-02T05:23:45.179Z,1002.27
2023-01-02T05:24:46.175Z,1002.30
2023-01-02T05:25:46.144Z,1002.30
2023-01-02T05:26:45.159Z,1002.26
2023-01-02T05:27:45.133Z,1002.18
2023-01-02T05:28:45.126Z,1002.20
2023-01-02T05:29:45.144Z,1002.20
2023-01-02T05:30:45.096Z,1002.19
2023-01-02T05:31:45.103Z,1002.19
2023-01-02T05:32:45.183Z,1002.16
2023-01-02T05:33:45.101Z,1002.23
2023-01-02T05:34:45.086Z,1002.16
2023-01-02T05:35:45.050Z,1002.12
2023-01-02T05:36:45.028Z,1002.19
2023-01-02T05:37:45.048Z,1002.14
2023-01-02T05:38:45.046Z,1002.20
2023-01-02T05:39:45.024Z,1002.28
2023-01-02T05:40:45.014Z,1002.23
2023-01-02T05:41:45.979Z,1002.25
2023-01-02T05:42:44.977Z,1002.20
2023-01-02T05:43:45.956Z,1002.21
2023-01-02T05:44:45.027Z,1002.16
2023-01-02T05:45:44.977Z,1002.18
2023-01-02T05:46:45.008Z,1002.14
2023-01-02T05:47:44.931Z,1002.17
2023-01-02T05:48:44.929Z,1002.19
2023-01-02T05:49:44.904Z,1002.27
2023-01-02T05:50:44.901Z,1002.27
2023-01-02T05:51:45.881Z,1002.30
2023-01-02T05:52:45.972Z,1002.22
2023-01-02T05:53:44.878Z,1002.29
2023-01-02T05:54:45.842Z,1002.32
2023-01-02T05:55:44.837Z,1002.29
2023-01-02T05:56:44.819Z,1002.34
2023-01-02T05:57:45.856Z,1002.36
2023-01-02T05:58:44.815Z,1002.31
2023-01-02T05:59:44.817Z,1002.28
2023-01-02T06:00:44.786Z,1002.20
2023-01-02T06:01:44.854Z,1002.17
2023-01-02T06:02:48.360Z,1002.13
2023-01-02T06:03:44.854Z,1002.17
2023-01-02T06:04:44.746Z,1002.21
2023-01-02T06:05:44.703Z,1002.14
2023-01-02T06:06:45.748Z,1002.18
2023-01-02T06:07:44.721Z,1002.19
2023-01-02T06:08:44.692Z,1002.26
2023-01-02T06:09:44.672Z,1002.32
2023-01-02T06:10:44.664Z,1002.37
2023-01-02T06:11:44.675Z,1002.30
2023-01-02T06:12:44.665Z,1002.31
2023-01-02T06:13:44.619Z,1002.31
2023-01-02T06:14:44.680Z,1002.30
2023-01-02T06:15:44.626Z,1002.31
2023-01-02T06:16:44.751Z,1002.33
2023-01-02T06:17:45.597Z,1002.35
2023-01-02T06:18:45.603Z,1002.25
2023-01-02T06:19:51.889Z,1002.27
2023-01-02T06:20:45.589Z,1002.36
2023-01-02T06:21:44.531Z,1002.33
2023-01-02T06:22:45.529Z,1002.37
2023-01-02T06:23:44.513Z,1002.34
2023-01-02T06:24:44.521Z,1002.35
2023-01-02T06:25:45.522Z,1002.40
2023-01-02T06:26:44.503Z,1002.39
2023-01-02T06:27:44.467Z,1002.37
2023-01-02T06:28:45.477Z,1002.35
2023-01-02T06:29:44.473Z,1002.25
2023-01-02T06:30:44.460Z,1002.35
2023-01-02T06:31:50.898Z,1002.36
2023-01-02T06:32:45.446Z,1002.25
2023-01-02T06:33:45.398Z,1002.19
2023-01-02T06:34:45.408Z,1002.24
2023-01-02T06:35:44.384Z,1002.30
2023-01-02T06:36:44.400Z,1002.20
2023-01-02T06:37:44.390Z,1002.18
2023-01-02T06:38:44.376Z,1002.23
2023-01-02T06:39:45.366Z,1002.11
2023-01-02T06:40:44.341Z,1002.14
2023-01-02T06:41:44.325Z,1002.19
2023-01-02T06:42:44.353Z,1002.26
2023-01-02T06:43:45.291Z,1002.22
2023-01-02T06:44:44.316Z,1002.29
2023-01-02T06:45:44.370Z,1002.28
2023-01-02T06:46:44.261Z,1002.40
2023-01-02T06:47:44.263Z,1002.31
2023-01-02T06:48:45.247Z,1002.29
2023-01-02T06:49:44.271Z,1002.33
2023-01-02T06:50:44.232Z,1002.36
2023-01-02T06:51:45.250Z,1002.41
2023-01-02T06:52:45.253Z,1002.41
2023-01-02T06:53:44.193Z,1002.46
2023-01-02T06:54:44.204Z,1002.48
2023-01-02T06:55:44.161Z,1002.53
2023-01-02T06:56:44.170Z,1002.52
2023-01-02T06:57:44.150Z,1002.59
2023-01-02T06:58:44.174Z,1002.59
2023-01-02T06:59:44.141Z,1002.66
2023-01-02T07:00:44.195Z,1002.54
2023-01-02T07:01:45.278Z,1002.47
2023-01-02T07:02:44.248Z,1002.48
2023-01-02T07:03:44.132Z,1002.45
2023-01-02T07:04:44.099Z,1002.50
2023-01-02T07:05:44.070Z,1002.51
2023-01-02T07:06:44.077Z,1002.63
2023-01-02T07:07:44.037Z,1002.62
2023-01-02T07:08:44.061Z,1002.62
2023-01-02T07:09:44.035Z,1002.60
2023-01-02T07:10:47.972Z,1002.63
2023-01-02T07:11:44.989Z,1002.70
2023-01-02T07:12:44.989Z,1002.72
2023-01-02T07:13:44.037Z,1002.72
2023-01-02T07:14:43.987Z,1002.71
2023-01-02T07:15:43.971Z,1002.73
2023-01-02T07:16:44.042Z,1002.67
2023-01-02T07:17:43.945Z,1002.63
2023-01-02T07:18:43.947Z,1002.71
2023-01-02T07:19:48.386Z,1002.70
2023-01-02T07:20:44.915Z,1002.64
2023-01-02T07:21:43.886Z,1002.72
2023-01-02T07:22:43.882Z,1002.67
2023-01-02T07:23:43.873Z,1002.66
2023-01-02T07:24:43.906Z,1002.69
2023-01-02T07:25:44.697Z,1002.66
2023-01-02T07:26:43.913Z,1002.73
2023-01-02T07:27:43.828Z,1002.72
2023-01-02T07:28:43.829Z,1002.75
2023-01-02T07:29:43.826Z,1002.79
2023-01-02T07:30:43.810Z,1002.79
2023-01-02T07:31:44.834Z,1002.79
2023-01-02T07:32:43.788Z,1002.77
2023-01-02T07:33:43.844Z,1002.83
2023-01-02T07:34:43.759Z,1002.74
2023-01-02T07:35:43.755Z,1002.75
2023-01-02T07:36:43.724Z,1002.81
2023-01-02T07:37:44.742Z,1002.71
2023-01-02T07:38:43.701Z,1002.75
2023-01-02T07:39:43.687Z,1002.75
2023-01-02T07:40:43.718Z,1002.81
2023-01-02T07:41:43.682Z,1002.81
2023-01-02T07:42:43.661Z,1002.86
2023-01-02T07:43:43.656Z,1002.78
2023-01-02T07:44:43.655Z,1002.83
2023-01-02T07:45:49.560Z,1002.84
2023-01-02T07:46:44.650Z,1002.85
2023-01-02T07:47:43.597Z,1002.77
2023-01-02T07:48:44.597Z,1002.78
2023-01-02T07:49:43.604Z,1002.80
2023-01-02T07:50:43.608Z,1002.80
2023-01-02T07:51:44.589Z,1002.87
2023-01-02T07:52:44.556Z,1002.85
2023-01-02T07:53:44.533Z,1002.91
2023-01-02T07:54:43.532Z,1002.93
2023-01-02T07:55:44.563Z,1002.88
2023-01-02T07:56:43.529Z,1002.91
2023-01-02T07:57:43.504Z,1002.94
2023-01-02T07:58:43.503Z,1002.93
2023-01-02T07:59:43.987Z,1002.92
2023-01-02T08:00:43.459Z,1002.94
2023-01-02T08:01:43.599Z,1002.90
2023-01-02T08:02:43.508Z,1002.90
2023-01-02T08:03:43.496Z,1002.96
2023-01-02T08:04:43.487Z,1002.96
2023-01-02T08:05:43.418Z,1002.98
2023-01-02T08:06:43.401Z,1002.93
2023-01-02T08:07:45.175Z,1002.94
2023-01-02T08:08:44.408Z,1002.94
2023-01-02T08:09:43.384Z,1002.94
2023-01-02T08:10:43.378Z,1002.93
2023-01-02T08:11:43.378Z,1002.95
2023-01-02T08:12:43.466Z,1002.99
2023-01-02T08:13:43.320Z,1002.93
2023-01-02T08:14:44.385Z,1002.96
2023-01-02T08:15:43.318Z,1002.96
2023-01-02T08:16:43.341Z,1002.94
2023-01-02T08:17:43.295Z,1002.94
2023-01-02T08:18:43.289Z,1002.92
2023-01-02T08:19:44.251Z,1002.89
2023-01-02T08:20:43.279Z,1002.95
2023-01-02T08:21:44.261Z,1002.96
2023-01-02T08:22:43.245Z,1002.93
2023-01-02T08:23:43.224Z,1002.95
2023-01-02T08:24:43.251Z,1002.92
2023-01-02T08:25:43.210Z,1002.93
2023-01-02T08:26:43.207Z,1002.97
2023-01-02T08:27:43.222Z,1002.92
2023-01-02T08:28:43.208Z,1002.94
2023-01-02T08:29:43.150Z,1003.01
2023-01-02T08:30:43.209Z,1002.96
2023-01-02T08:31:43.949Z,1003.00
2023-01-02T08:32:44.141Z,1002.94
2023-01-02T08:33:44.116Z,1002.97
2023-01-02T08:34:44.117Z,1002.93
2023-01-02T08:35:43.098Z,1002.94
2023-01-02T08:36:43.092Z,1002.97
2023-01-02T08:37:48.392Z,1002.93
2023-01-02T08:38:44.071Z,1003.03
2023-01-02T08:39:43.062Z,1003.00
2023-01-02T08:40:43.035Z,1003.06
2023-01-02T08:41:43.013Z,1003.06
2023-01-02T08:42:43.019Z,1003.04
2023-01-02T08:43:43.039Z,1003.02
2023-01-02T08:44:44.009Z,1003.01
2023-01-02T08:45:43.014Z,1003.01
2023-01-02T08:46:43.397Z,1002.93
2023-01-02T08:47:42.967Z,1002.95
2023-01-02T08:48:42.969Z,1002.96
2023-01-02T08:49:43.937Z,1002.92
2023-01-02T08:50:43.918Z,1002.93
2023-01-02T08:51:43.911Z,1002.92
2023-01-02T08:52:42.897Z,1002.98
2023-01-02T08:53:42.902Z,1002.98
2023-01-02T08:54:42.905Z,1003.00
2023-01-02T08:55:42.871Z,1002.98
2023-01-02T08:56:43.995Z,1002.96
2023-01-02T08:57:42.880Z,1002.98
2023-01-02T08:58:47.347Z,1002.98
2023-01-02T08:59:43.858Z,1003.05
2023-01-02T09:00:43.840Z,1003.05
2023-01-02T09:01:42.993Z,1003.10
2023-01-02T09:02:43.033Z,1003.07
2023-01-02T09:03:43.801Z,1003.10
2023-01-02T09:04:43.764Z,1003.11
2023-01-02T09:05:42.780Z,1003.12
2023-01-02T09:06:42.773Z,1003.10
2023-01-02T09:07:42.730Z,1003.16
2023-01-02T09:08:43.721Z,1003.13
2023-01-02T09:09:42.713Z,1003.19
2023-01-02T09:10:43.696Z,1003.13
2023-01-02T09:11:42.703Z,1003.17
2023-01-02T09:12:43.715Z,1003.10
2023-01-02T09:13:42.665Z,1003.09
2023-01-02T09:14:42.689Z,1003.13
2023-01-02T09:15:42.802Z,1003.10
2023-01-02T09:16:43.664Z,1003.10
2023-01-02T09:17:42.626Z,1003.10
2023-01-02T09:18:42.635Z,1003.06
2023-01-02T09:19:42.616Z,1003.02
2023-01-02T09:20:42.639Z,1003.02
2023-01-02T09:21:42.620Z,1003.07
2023-01-02T09:22:42.581Z,1003.04
2023-01-02T09:23:42.564Z,1002.99
2023-01-02T09:24:42.574Z,1002.98
2023-01-02T09:25:42.557Z,1003.01
2023-01-02T09:26:42.566Z,1002.96
2023-01-02T09:27:42.517Z,1003.03
2023-01-02T09:28:42.502Z,1003.03
2023-01-02T09:29:43.529Z,1003.04
2023-01-02T09:30:42.599Z,1003.06
2023-01-02T09:31:42.542Z,1003.02
2023-01-02T09:32:43.471Z,1003.08
2023-01-02T09:33:42.452Z,1003.12
2023-01-02T09:34:42.438Z,1003.06
2023-01-02T09:35:42.467Z,1003.13
2023-01-02T09:36:42.469Z,1003.18
2023-01-02T09:37:42.416Z,1003.10
2023-01-02T09:38:42.415Z,1003.16
2023-01-02T09:39:42.397Z,1003.22
2023-01-02T09:40:42.377Z,1003.14
2023-01-02T09:41:42.367Z,1003.13
2023-01-02T09:42:43.380Z,1003.08
2023-01-02T09:43:42.363Z,1003.06
2023-01-02T09:44:42.366Z,1003.06
2023-01-02T09:45:42.363Z,1003.02
2023-01-02T09:46:42.350Z,1002.98
2023-01-02T09:47:42.387Z,1002.96
2023-01-02T09:48:42.317Z,1002.96
2023-01-02T09:49:42.291Z,1002.96
2023-01-02T09:50:42.266Z,1003.04
2023-01-02T09:51:42.270Z,1003.02
2023-01-02T09:52:42.242Z,1002.98
2023-01-02T09:53:42.253Z,1003.02
2023-01-02T09:54:42.233Z,1003.01
2023-01-02T09:55:43.263Z,1002.91
2023-01-02T09:56:42.194Z,1002.92
2023-01-02T09:57:43.206Z,1002.94
2023-01-02T09:58:42.176Z,1002.97
2023-01-02T09:59:42.217Z,1002.98
2023-01-02T10:00:43.179Z,1003.04
2023-01-02T10:01:42.208Z,1002.99
2023-01-02T10:02:42.177Z,1003.00
2023-01-02T10:03:42.277Z,1002.98
2023-01-02T10:04:42.145Z,1002.97
2023-01-02T10:05:42.140Z,1002.88
2023-01-02T10:06:42.099Z,1002.84
2023-01-02T10:07:42.098Z,1002.82
2023-01-02T10:08:42.103Z,1002.82
2023-01-02T10:09:42.055Z,1002.86
2023-01-02T10:10:42.076Z,1002.85
2023-01-02T10:11:42.046Z,1002.81
2023-01-02T10:12:42.056Z,1002.85
2023-01-02T10:14:17.618Z,1002.87
2023-01-02T10:14:44.731Z,1002.84
2023-01-02T10:15:42.027Z,1002.84
2023-01-02T10:16:41.999Z,1002.87
2023-01-02T10:17:41.998Z,1002.89
2023-01-02T10:18:41.975Z,1002.80
2023-01-02T10:19:41.991Z,1002.92
2023-01-02T10:20:41.969Z,1002.84
2023-01-02T10:21:41.940Z,1002.78
2023-01-02T10:22:41.924Z,1002.86
2023-01-02T10:23:41.905Z,1002.86
2023-01-02T10:24:41.904Z,1002.85
2023-01-02T10:25:41.910Z,1002.84
2023-01-02T10:26:41.879Z,1002.87
2023-01-02T10:27:41.860Z,1002.74
2023-01-02T10:28:41.869Z,1002.77
2023-01-02T10:29:42.859Z,1002.73
2023-01-02T10:30:41.951Z,1002.71
2023-01-02T10:31:41.962Z,1002.73
2023-01-02T10:32:41.823Z,1002.77
2023-01-02T10:33:41.936Z,1002.76
2023-01-02T10:34:42.799Z,1002.75
2023-01-02T10:35:41.823Z,1002.75
2023-01-02T10:36:42.790Z,1002.78
2023-01-02T10:37:41.949Z,1002.82
2023-01-02T10:38:41.742Z,1002.77
2023-01-02T10:39:41.745Z,1002.77
2023-01-02T10:40:41.746Z,1002.72
2023-01-02T10:41:41.709Z,1002.70
2023-01-02T10:42:42.728Z,1002.79
2023-01-02T10:43:42.684Z,1002.72
2023-01-02T10:44:41.702Z,1002.76
2023-01-02T10:45:41.679Z,1002.72
2023-01-02T10:46:41.758Z,1002.74
2023-01-02T10:47:41.656Z,1002.76
2023-01-02T10:48:46.938Z,1002.72
2023-01-02T10:49:42.625Z,1002.68
2023-01-02T10:50:41.633Z,1002.67
2023-01-02T10:51:41.620Z,1002.62
2023-01-02T10:52:41.641Z,1002.67
2023-01-02T10:53:41.600Z,1002.65
2023-01-02T10:54:47.838Z,1002.64
2023-01-02T10:55:42.591Z,1002.64
2023-01-02T10:56:42.581Z,1002.66
2023-01-02T10:57:41.560Z,1002.62
2023-01-02T10:58:41.586Z,1002.61
2023-01-02T10:59:41.542Z,1002.58
2023-01-02T11:00:41.639Z,1002.56
2023-01-02T11:01:41.679Z,1002.58
2023-01-02T11:02:41.632Z,1002.57
2023-01-02T11:03:41.483Z,1002.54
2023-01-02T11:04:41.543Z,1002.63
2023-01-02T11:05:41.464Z,1002.60
2023-01-02T11:06:41.485Z,1002.63
2023-01-02T11:07:41.437Z,1002.63
2023-01-02T11:08:41.449Z,1002.67
2023-01-02T11:09:41.412Z,1002.66
2023-01-02T11:10:42.412Z,1002.64
2023-01-02T11:11:41.410Z,1002.60
2023-01-02T11:12:41.427Z,1002.66
2023-01-02T11:13:41.366Z,1002.70
2023-01-02T11:14:41.360Z,1002.66
2023-01-02T11:15:41.351Z,1002.71
2023-01-02T11:16:41.372Z,1002.76
2023-01-02T11:17:41.349Z,1002.75
2023-01-02T11:18:41.348Z,1002.73
2023-01-02T11:19:41.303Z,1002.73
2023-01-02T11:20:41.286Z,1002.77
2023-01-02T11:21:41.319Z,1002.78
2023-01-02T11:22:41.295Z,1002.78
2023-01-02T11:23:41.292Z,1002.75
2023-01-02T11:24:41.281Z,1002.69
2023-01-02T11:25:41.252Z,1002.72
2023-01-02T11:26:41.235Z,1002.61
2023-01-02T11:27:41.247Z,1002.51
2023-01-02T11:28:42.239Z,1002.53
2023-01-02T11:29:41.226Z,1002.51
2023-01-02T11:30:41.188Z,1002.56
2023-01-02T11:31:41.222Z,1002.58
2023-01-02T11:32:41.213Z,1002.62
2023-01-02T11:33:41.189Z,1002.60
2023-01-02T11:34:41.155Z,1002.60
2023-01-02T11:35:41.144Z,1002.66
2023-01-02T11:36:41.124Z,1002.69
2023-01-02T11:37:41.122Z,1002.65
2023-01-02T11:38:42.128Z,1002.66
2023-01-02T11:39:41.082Z,1002.63
2023-01-02T11:40:41.099Z,1002.68
2023-01-02T11:41:41.070Z,1002.67
2023-01-02T11:42:42.061Z,1002.71
2023-01-02T11:43:42.091Z,1002.70
2023-01-02T11:44:41.045Z,1002.71
2023-01-02T11:45:41.220Z,1002.68
2023-01-02T11:46:41.012Z,1002.67
2023-01-02T11:47:41.994Z,1002.66
2023-01-02T11:48:41.028Z,1002.67
2023-01-02T11:49:40.992Z,1002.69
2023-01-02T11:50:40.980Z,1002.65
2023-01-02T11:51:40.967Z,1002.56
2023-01-02T11:52:40.953Z,1002.57
2023-01-02T11:53:40.956Z,1002.56
2023-01-02T11:54:40.923Z,1002.56
2023-01-02T11:55:40.921Z,1002.61
2023-01-02T11:56:40.938Z,1002.56
2023-01-02T11:57:40.879Z,1002.63
2023-01-02T11:58:40.884Z,1002.59
2023-01-02T11:59:40.882Z,1002.64
2023-01-02T12:00:41.876Z,1002.71
2023-01-02T12:01:40.994Z,1002.67
2023-01-02T12:02:40.894Z,1002.65
2023-01-02T12:03:41.896Z,1002.67
2023-01-02T12:04:40.839Z,1002.60
2023-01-02T12:05:40.794Z,1002.61